sensor_id;sensor_type;location;lat;lon;timestamp;pressure;altitude;pressure_sealevel;temperature;humidity
11605;BME280;5858;43.076;25.626;2023-02-16T00:01:41;100727.59;;;0.87;91.05
11605;BME280;5858;43.076;25.626;2023-02-16T00:04:16;100723.66;;;0.65;92.10
11605;BME280;5858;43.076;25.626;2023-02-16T00:06:44;100673.19;;;0.41;91.47
11605;BME280;5858;43.076;25.626;2023-02-16T00:09:13;100691.78;;;0.69;91.36
11605;BME280;5858;43.076;25.626;2023-02-16T00:11:40;100692.22;;;0.61;91.80
11605;BME280;5858;43.076;25.626;2023-02-16T00:14:26;100738.41;;;0.99;91.43
11605;BME280;5858;43.076;25.626;2023-02-16T00:16:54;100664.34;;;0.57;91.27
11605;BME280;5858;43.076;25.626;2023-02-16T00:19:23;100643.81;;;0.48;90.78
11605;BME280;5858;43.076;25.626;2023-02-16T00:21:51;100648.47;;;0.43;91.49
11605;BME280;5858;43.076;25.626;2023-02-16T00:24:21;100615.28;;;0.09;91.04
11605;BME280;5858;43.076;25.626;2023-02-16T00:26:48;100677.88;;;0.51;91.25
11605;BME280;5858;43.076;25.626;2023-02-16T00:29:19;100730.50;;;0.83;91.16
11605;BME280;5858;43.076;25.626;2023-02-16T00:31:47;100731.88;;;0.74;90.96
11605;BME280;5858;43.076;25.626;2023-02-16T00:34:27;100547.03;;;-0.25;90.89
11605;BME280;5858;43.076;25.626;2023-02-16T00:36:55;100703.59;;;0.62;90.84
11605;BME280;5858;43.076;25.626;2023-02-16T00:39:25;100704.78;;;0.72;91.20
11605;BME280;5858;43.076;25.626;2023-02-16T00:41:56;100733.16;;;0.83;90.99
11605;BME280;5858;43.076;25.626;2023-02-16T00:44:30;100650.50;;;0.22;90.76
11605;BME280;5858;43.076;25.626;2023-02-16T00:47:00;100730.00;;;0.76;91.01
11605;BME280;5858;43.076;25.626;2023-02-16T00:49:28;100618.94;;;0.07;90.82
11605;BME280;5858;43.076;25.626;2023-02-16T00:51:55;100562.41;;;-0.34;91.06
11605;BME280;5858;43.076;25.626;2023-02-16T00:54:24;100652.81;;;0.28;91.15
11605;BME280;5858;43.076;25.626;2023-02-16T00:56:51;100715.84;;;0.63;91.35
11605;BME280;5858;43.076;25.626;2023-02-16T00:59:20;100737.06;;;0.60;91.59
11605;BME280;5858;43.076;25.626;2023-02-16T01:01:48;100619.84;;;-0.10;91.07
11605;BME280;5858;43.076;25.626;2023-02-16T01:04:21;100690.34;;;0.32;91.82
11605;BME280;5858;43.076;25.626;2023-02-16T01:06:49;100641.78;;;0.06;92.19
11605;BME280;5858;43.076;25.626;2023-02-16T01:09:35;100627.31;;;-0.18;92.24
11605;BME280;5858;43.076;25.626;2023-02-16T01:12:20;100659.44;;;0.20;92.16
11605;BME280;5858;43.076;25.626;2023-02-16T01:14:51;100582.59;;;-0.34;92.14
11605;BME280;5858;43.076;25.626;2023-02-16T01:17:18;100572.41;;;-0.40;92.06
11605;BME280;5858;43.076;25.626;2023-02-16T01:19:46;100519.34;;;-0.64;91.81
11605;BME280;5858;43.076;25.626;2023-02-16T01:22:13;100652.38;;;0.20;91.33
11605;BME280;5858;43.076;25.626;2023-02-16T01:24:42;100647.28;;;0.17;91.49
11605;BME280;5858;43.076;25.626;2023-02-16T01:27:10;100528.94;;;-0.63;91.55
11605;BME280;5858;43.076;25.626;2023-02-16T01:29:38;100691.81;;;0.53;91.42
11605;BME280;5858;43.076;25.626;2023-02-16T01:32:05;100663.34;;;0.13;91.50
11605;BME280;5858;43.076;25.626;2023-02-16T01:34:32;100581.22;;;-0.25;91.59
11605;BME280;5858;43.076;25.626;2023-02-16T01:36:59;100691.34;;;0.45;91.49
11605;BME280;5858;43.076;25.626;2023-02-16T01:39:26;100561.28;;;-0.45;91.73
11605;BME280;5858;43.076;25.626;2023-02-16T01:42:03;100690.06;;;0.37;91.81
11605;BME280;5858;43.076;25.626;2023-02-16T01:44:36;100703.16;;;0.38;91.75
11605;BME280;5858;43.076;25.626;2023-02-16T01:47:11;100688.38;;;0.36;91.63
11605;BME280;5858;43.076;25.626;2023-02-16T01:49:42;100661.72;;;0.10;91.86
11605;BME280;5858;43.076;25.626;2023-02-16T01:52:17;100592.59;;;-0.25;91.61
11605;BME280;5858;43.076;25.626;2023-02-16T01:54:49;100680.22;;;0.24;91.94
11605;BME280;5858;43.076;25.626;2023-02-16T01:57:31;100594.81;;;-0.17;92.05
11605;BME280;5858;43.076;25.626;2023-02-16T02:00:06;100691.94;;;0.35;92.30
11605;BME280;5858;43.076;25.626;2023-02-16T02:02:36;100601.50;;;-0.12;91.96
11605;BME280;5858;43.076;25.626;2023-02-16T02:05:10;100646.19;;;0.06;92.17
11605;BME280;5858;43.076;25.626;2023-02-16T02:08:03;100667.06;;;0.24;91.72
11605;BME280;5858;43.076;25.626;2023-02-16T02:10:39;100632.44;;;0.01;91.79
11605;BME280;5858;43.076;25.626;2023-02-16T02:13:14;100696.44;;;0.32;92.14
11605;BME280;5858;43.076;25.626;2023-02-16T02:15:43;100685.06;;;0.32;91.46
11605;BME280;5858;43.076;25.626;2023-02-16T02:18:10;100691.44;;;0.28;91.83
11605;BME280;5858;43.076;25.626;2023-02-16T02:20:51;100536.59;;;-0.91;92.25
11605;BME280;5858;43.076;25.626;2023-02-16T02:24:05;100631.69;;;-0.35;92.57
11605;BME280;5858;43.076;25.626;2023-02-16T02:26:54;100647.16;;;-0.28;92.98
11605;BME280;5858;43.076;25.626;2023-02-16T02:29:48;100674.81;;;-0.21;93.09
11605;BME280;5858;43.076;25.626;2023-02-16T02:32:27;100598.41;;;-0.84;93.39
11605;BME280;5858;43.076;25.626;2023-02-16T02:35:03;100578.75;;;-0.77;93.12
11605;BME280;5858;43.076;25.626;2023-02-16T02:37:43;100621.78;;;-0.63;92.74
11605;BME280;5858;43.076;25.626;2023-02-16T02:40:17;100641.72;;;-0.58;92.98
11605;BME280;5858;43.076;25.626;2023-02-16T02:42:56;100619.22;;;-0.64;93.42
11605;BME280;5858;43.076;25.626;2023-02-16T02:45:27;100687.13;;;-0.22;93.39
11605;BME280;5858;43.076;25.626;2023-02-16T02:47:56;100616.84;;;-0.69;93.21
11605;BME280;5858;43.076;25.626;2023-02-16T02:50:45;100587.53;;;-0.94;93.05
11605;BME280;5858;43.076;25.626;2023-02-16T02:53:26;100513.56;;;-1.37;93.73
11605;BME280;5858;43.076;25.626;2023-02-16T02:55:55;100629.72;;;-0.64;93.49
11605;BME280;5858;43.076;25.626;2023-02-16T02:58:44;100656.78;;;-0.45;93.70
11605;BME280;5858;43.076;25.626;2023-02-16T03:01:32;100688.81;;;-0.21;93.15
11605;BME280;5858;43.076;25.626;2023-02-16T03:04:03;100505.13;;;-1.26;92.99
11605;BME280;5858;43.076;25.626;2023-02-16T03:06:36;100485.13;;;-1.46;93.22
11605;BME280;5858;43.076;25.626;2023-02-16T03:09:06;100624.47;;;-0.64;92.79
11605;BME280;5858;43.076;25.626;2023-02-16T03:11:37;100667.13;;;-0.42;92.74
11605;BME280;5858;43.076;25.626;2023-02-16T03:14:26;100512.22;;;-1.28;92.64
11605;BME280;5858;43.076;25.626;2023-02-16T03:16:57;100653.69;;;-0.53;93.24
11605;BME280;5858;43.076;25.626;2023-02-16T03:19:43;100643.75;;;-0.48;93.05
11605;BME280;5858;43.076;25.626;2023-02-16T03:22:29;100704.88;;;-0.10;92.22
11605;BME280;5858;43.076;25.626;2023-02-16T03:25:14;100593.38;;;-0.89;92.93
11605;BME280;5858;43.076;25.626;2023-02-16T03:28:01;100609.50;;;-0.79;92.70
11605;BME280;5858;43.076;25.626;2023-02-16T03:30:50;100643.47;;;-0.59;92.58
11605;BME280;5858;43.076;25.626;2023-02-16T03:33:18;100632.06;;;-0.75;93.23
11605;BME280;5858;43.076;25.626;2023-02-16T03:35:46;100677.72;;;-0.60;93.32
11605;BME280;5858;43.076;25.626;2023-02-16T03:38:13;100533.06;;;-1.25;93.54
11605;BME280;5858;43.076;25.626;2023-02-16T03:40:42;100486.53;;;-1.56;93.40
11605;BME280;5858;43.076;25.626;2023-02-16T03:43:10;100707.47;;;-0.25;93.42
11605;BME280;5858;43.076;25.626;2023-02-16T03:45:40;100648.28;;;-0.67;92.87
11605;BME280;5858;43.076;25.626;2023-02-16T03:48:10;100656.38;;;-0.54;92.83
11605;BME280;5858;43.076;25.626;2023-02-16T03:50:37;100607.97;;;-0.83;93.13
11605;BME280;5858;43.076;25.626;2023-02-16T03:53:04;100695.41;;;-0.29;92.96
11605;BME280;5858;43.076;25.626;2023-02-16T03:55:36;100698.66;;;-0.24;92.25
11605;BME280;5858;43.076;25.626;2023-02-16T03:58:04;100602.88;;;-0.86;92.55
11605;BME280;5858;43.076;25.626;2023-02-16T04:00:33;100579.22;;;-1.04;92.62
11605;BME280;5858;43.076;25.626;2023-02-16T04:03:01;100697.63;;;-0.22;92.72
11605;BME280;5858;43.076;25.626;2023-02-16T04:05:31;100665.03;;;-0.52;92.30
11605;BME280;5858;43.076;25.626;2023-02-16T04:07:59;100676.47;;;-0.53;92.30
11605;BME280;5858;43.076;25.626;2023-02-16T04:10:27;100676.41;;;-0.52;92.49
11605;BME280;5858;43.076;25.626;2023-02-16T04:12:54;100594.47;;;-1.10;92.49
11605;BME280;5858;43.076;25.626;2023-02-16T04:15:22;100526.84;;;-1.40;92.42
11605;BME280;5858;43.076;25.626;2023-02-16T04:17:53;100702.94;;;-0.39;92.48
11605;BME280;5858;43.076;25.626;2023-02-16T04:20:22;100707.25;;;-0.38;92.03
11605;BME280;5858;43.076;25.626;2023-02-16T04:22:54;100651.84;;;-0.68;92.14
11605;BME280;5858;43.076;25.626;2023-02-16T04:25:30;100650.69;;;-0.97;92.50
11605;BME280;5858;43.076;25.626;2023-02-16T04:27:57;100716.25;;;-0.77;93.29
11605;BME280;5858;43.076;25.626;2023-02-16T04:30:27;100569.97;;;-1.45;93.20
11605;BME280;5858;43.076;25.626;2023-02-16T04:32:54;100629.22;;;-1.05;93.21
11605;BME280;5858;43.076;25.626;2023-02-16T04:35:23;100697.69;;;-0.74;93.17
11605;BME280;5858;43.076;25.626;2023-02-16T04:37:50;100699.56;;;-0.76;93.93
11605;BME280;5858;43.076;25.626;2023-02-16T04:40:19;100631.53;;;-1.34;93.74
11605;BME280;5858;43.076;25.626;2023-02-16T04:42:46;100693.75;;;-0.82;94.30
11605;BME280;5858;43.076;25.626;2023-02-16T04:45:13;100590.41;;;-1.52;94.42
11605;BME280;5858;43.076;25.626;2023-02-16T04:47:40;100598.00;;;-1.46;94.59
11605;BME280;5858;43.076;25.626;2023-02-16T04:50:08;100630.06;;;-1.22;94.54
11605;BME280;5858;43.076;25.626;2023-02-16T04:52:35;100691.78;;;-0.96;94.49
11605;BME280;5858;43.076;25.626;2023-02-16T04:55:03;100698.09;;;-0.81;94.09
11605;BME280;5858;43.076;25.626;2023-02-16T04:57:33;100545.34;;;-1.77;93.74
11605;BME280;5858;43.076;25.626;2023-02-16T05:00:00;100680.84;;;-0.87;93.71
11605;BME280;5858;43.076;25.626;2023-02-16T05:02:27;100595.78;;;-1.36;93.47
11605;BME280;5858;43.076;25.626;2023-02-16T05:04:54;100674.25;;;-0.96;93.43
11605;BME280;5858;43.076;25.626;2023-02-16T05:07:21;100661.44;;;-1.02;93.46
11605;BME280;5858;43.076;25.626;2023-02-16T05:09:48;100670.94;;;-0.99;94.15
11605;BME280;5858;43.076;25.626;2023-02-16T05:12:18;100665.06;;;-1.04;93.49
11605;BME280;5858;43.076;25.626;2023-02-16T05:15:04;100517.97;;;-1.91;93.01
11605;BME280;5858;43.076;25.626;2023-02-16T05:17:32;100709.75;;;-0.87;93.22
11605;BME280;5858;43.076;25.626;2023-02-16T05:19:59;100665.75;;;-1.18;93.73
11605;BME280;5858;43.076;25.626;2023-02-16T05:22:27;100519.56;;;-2.05;93.59
11605;BME280;5858;43.076;25.626;2023-02-16T05:24:57;100646.28;;;-1.31;93.46
11605;BME280;5858;43.076;25.626;2023-02-16T05:27:27;100573.13;;;-1.73;93.44
11605;BME280;5858;43.076;25.626;2023-02-16T05:29:54;100544.16;;;-1.89;93.19
11605;BME280;5858;43.076;25.626;2023-02-16T05:32:26;100539.03;;;-1.92;93.12
11605;BME280;5858;43.076;25.626;2023-02-16T05:34:53;100675.78;;;-1.26;93.06
11605;BME280;5858;43.076;25.626;2023-02-16T05:37:20;100699.22;;;-1.04;93.42
11605;BME280;5858;43.076;25.626;2023-02-16T05:39:47;100705.84;;;-0.97;93.32
11605;BME280;5858;43.076;25.626;2023-02-16T05:42:14;100711.97;;;-0.97;93.62
11605;BME280;5858;43.076;25.626;2023-02-16T05:44:41;100733.16;;;-0.82;93.65
11605;BME280;5858;43.076;25.626;2023-02-16T05:47:08;100722.88;;;-0.70;93.08
11605;BME280;5858;43.076;25.626;2023-02-16T05:49:39;100616.16;;;-1.41;93.03
11605;BME280;5858;43.076;25.626;2023-02-16T05:52:06;100663.81;;;-0.97;92.54
11605;BME280;5858;43.076;25.626;2023-02-16T05:54:35;100579.34;;;-1.40;93.09
11605;BME280;5858;43.076;25.626;2023-02-16T05:58:44;100721.09;;;-0.52;92.87
11605;BME280;5858;43.076;25.626;2023-02-16T06:00:16;100533.44;;;-1.67;91.95
11605;BME280;5858;43.076;25.626;2023-02-16T06:05:52;100577.34;;;-1.35;91.50
11605;BME280;5858;43.076;25.626;2023-02-16T06:08:28;100722.28;;;-0.40;91.55
11605;BME280;5858;43.076;25.626;2023-02-16T06:11:02;100651.91;;;-0.52;90.11
11605;BME280;5858;43.076;25.626;2023-02-16T06:13:43;100650.50;;;-0.42;90.47
11605;BME280;5858;43.076;25.626;2023-02-16T06:16:22;100554.91;;;-0.90;90.56
11605;BME280;5858;43.076;25.626;2023-02-16T06:18:51;100701.53;;;0.04;90.30
11605;BME280;5858;43.076;25.626;2023-02-16T06:21:32;100660.66;;;-0.03;90.36
11605;BME280;5858;43.076;25.626;2023-02-16T06:24:06;100589.94;;;-0.41;88.67
11605;BME280;5858;43.076;25.626;2023-02-16T06:26:42;100592.34;;;-0.36;88.57
11605;BME280;5858;43.076;25.626;2023-02-16T06:29:14;100631.22;;;-0.10;88.91
11605;BME280;5858;43.076;25.626;2023-02-16T06:31:48;100578.69;;;-0.27;88.23
11605;BME280;5858;43.076;25.626;2023-02-16T06:34:21;100677.25;;;0.46;87.75
11605;BME280;5858;43.076;25.626;2023-02-16T06:36:56;100583.34;;;-0.16;88.00
11605;BME280;5858;43.076;25.626;2023-02-16T06:39:32;100759.72;;;0.94;88.37
11605;BME280;5858;43.076;25.626;2023-02-16T06:42:36;100689.66;;;0.60;88.23
11605;BME280;5858;43.076;25.626;2023-02-16T06:46:00;100766.13;;;1.06;88.26
11605;BME280;5858;43.076;25.626;2023-02-16T06:58:55;100760.63;;;1.24;88.21
11605;BME280;5858;43.076;25.626;2023-02-16T07:01:51;100575.44;;;-0.01;88.96
11605;BME280;5858;43.076;25.626;2023-02-16T07:07:59;100576.19;;;0.33;88.54
11605;BME280;5858;43.076;25.626;2023-02-16T07:16:27;100687.81;;;1.08;88.60
11605;BME280;5858;43.076;25.626;2023-02-16T07:17:25;100756.13;;;1.56;89.63
11605;BME280;5858;43.076;25.626;2023-02-16T09:28:05;100673.66;;;6.85;76.03
11605;BME280;5858;43.076;25.626;2023-02-16T09:31:06;100517.63;;;5.99;74.82
11605;BME280;5858;43.076;25.626;2023-02-16T09:37:38;100517.09;;;6.28;74.79
11605;BME280;5858;43.076;25.626;2023-02-16T09:40:21;100666.34;;;7.51;73.71
11605;BME280;5858;43.076;25.626;2023-02-16T09:46:15;100516.81;;;6.84;72.86
11605;BME280;5858;43.076;25.626;2023-02-16T09:49:31;100551.00;;;7.09;72.20
11605;BME280;5858;43.076;25.626;2023-02-16T11:15:23;100390.84;;;9.54;51.12
11605;BME280;5858;43.076;25.626;2023-02-16T11:18:24;100397.09;;;9.62;51.43
11605;BME280;5858;43.076;25.626;2023-02-16T11:21:12;100394.22;;;9.73;50.44
11605;BME280;5858;43.076;25.626;2023-02-16T11:23:43;100404.13;;;9.63;50.17
11605;BME280;5858;43.076;25.626;2023-02-16T11:26:24;100384.97;;;9.68;50.17
11605;BME280;5858;43.076;25.626;2023-02-16T11:29:24;100521.13;;;10.60;49.87
11605;BME280;5858;43.076;25.626;2023-02-16T11:32:17;100490.72;;;10.43;49.46
11605;BME280;5858;43.076;25.626;2023-02-16T11:35:08;100377.94;;;9.67;49.13
11605;BME280;5858;43.076;25.626;2023-02-16T11:38:00;100514.31;;;10.65;49.09
11605;BME280;5858;43.076;25.626;2023-02-16T11:40:39;100465.53;;;10.54;51.08
11605;BME280;5858;43.076;25.626;2023-02-16T11:43:35;100487.28;;;10.77;50.68
11605;BME280;5858;43.076;25.626;2023-02-16T11:46:17;100505.09;;;10.86;51.63
11605;BME280;5858;43.076;25.626;2023-02-16T11:59:36;100475.88;;;11.18;48.70
11605;BME280;5858;43.076;25.626;2023-02-16T12:03:08;100307.28;;;10.23;46.20
11605;BME280;5858;43.076;25.626;2023-02-16T12:06:18;100373.66;;;10.71;46.50
11605;BME280;5858;43.076;25.626;2023-02-16T12:09:22;100318.19;;;10.55;44.96
11605;BME280;5858;43.076;25.626;2023-02-16T12:58:24;100405.78;;;11.81;47.64
11605;BME280;5858;43.076;25.626;2023-02-16T13:01:39;100388.91;;;11.89;47.58
11605;BME280;5858;43.076;25.626;2023-02-16T13:06:20;100392.25;;;11.91;46.76
11605;BME280;5858;43.076;25.626;2023-02-16T13:09:48;100289.53;;;11.32;47.36
11605;BME280;5858;43.076;25.626;2023-02-16T13:51:40;100358.56;;;11.96;46.62
11605;BME280;5858;43.076;25.626;2023-02-16T13:54:22;100270.34;;;11.45;47.53
11605;BME280;5858;43.076;25.626;2023-02-16T14:00:23;100282.34;;;11.32;48.70
11605;BME280;5858;43.076;25.626;2023-02-16T14:05:53;100312.91;;;11.72;47.69
11605;BME280;5858;43.076;25.626;2023-02-16T14:08:44;100304.00;;;11.55;47.92
11605;BME280;5858;43.076;25.626;2023-02-16T14:18:29;100355.94;;;11.46;50.39
11605;BME280;5858;43.076;25.626;2023-02-16T14:21:03;100292.50;;;11.13;50.70
11605;BME280;5858;43.076;25.626;2023-02-16T14:23:32;100240.97;;;10.68;50.80
11605;BME280;5858;43.076;25.626;2023-02-16T14:26:03;100303.06;;;11.14;50.88
11605;BME280;5858;43.076;25.626;2023-02-16T14:29:10;100335.00;;;11.50;49.86
11605;BME280;5858;43.076;25.626;2023-02-16T14:31:56;100169.91;;;10.32;50.19
11605;BME280;5858;43.076;25.626;2023-02-16T14:34:35;100231.72;;;10.55;51.67
11605;BME280;5858;43.076;25.626;2023-02-16T14:37:27;100234.41;;;10.55;52.03
11605;BME280;5858;43.076;25.626;2023-02-16T14:40:15;100282.69;;;10.87;52.28
11605;BME280;5858;43.076;25.626;2023-02-16T14:42:53;100332.84;;;11.11;52.22
11605;BME280;5858;43.076;25.626;2023-02-16T14:46:01;100331.81;;;10.96;52.79
11605;BME280;5858;43.076;25.626;2023-02-16T14:52:17;100197.13;;;9.75;54.02
11605;BME280;5858;43.076;25.626;2023-02-16T14:58:28;100223.94;;;9.92;54.07
11605;BME280;5858;43.076;25.626;2023-02-16T15:01:11;100247.94;;;10.01;55.09
11605;BME280;5858;43.076;25.626;2023-02-16T15:04:03;100175.25;;;9.54;55.46
11605;BME280;5858;43.076;25.626;2023-02-16T15:09:26;100302.53;;;10.17;55.54
11605;BME280;5858;43.076;25.626;2023-02-16T15:12:04;100259.31;;;9.86;56.31
11605;BME280;5858;43.076;25.626;2023-02-16T15:14:51;100225.78;;;9.65;56.57
11605;BME280;5858;43.076;25.626;2023-02-16T15:17:26;100348.34;;;10.39;56.56
11605;BME280;5858;43.076;25.626;2023-02-16T15:20:03;100300.09;;;10.05;57.15
11605;BME280;5858;43.076;25.626;2023-02-16T15:22:53;100174.25;;;9.37;57.41
11605;BME280;5858;43.076;25.626;2023-02-16T15:25:27;100255.97;;;9.84;56.42
11605;BME280;5858;43.076;25.626;2023-02-16T15:28:02;100188.41;;;9.30;57.25
11605;BME280;5858;43.076;25.626;2023-02-16T15:30:32;100297.28;;;9.89;57.15
11605;BME280;5858;43.076;25.626;2023-02-16T15:33:09;100246.09;;;9.58;57.81
11605;BME280;5858;43.076;25.626;2023-02-16T15:35:40;100322.28;;;9.98;58.68
11605;BME280;5858;43.076;25.626;2023-02-16T15:38:20;100184.22;;;9.09;59.84
11605;BME280;5858;43.076;25.626;2023-02-16T15:41:25;100332.28;;;9.96;59.95
11605;BME280;5858;43.076;25.626;2023-02-16T15:43:49;100186.91;;;8.82;60.54
11605;BME280;5858;43.076;25.626;2023-02-16T15:46:27;100275.63;;;9.39;61.22
11605;BME280;5858;43.076;25.626;2023-02-16T15:48:55;100304.81;;;9.50;62.13
11605;BME280;5858;43.076;25.626;2023-02-16T15:51:29;100224.22;;;8.92;63.21
11605;BME280;5858;43.076;25.626;2023-02-16T15:53:59;100171.38;;;8.50;63.55
11605;BME280;5858;43.076;25.626;2023-02-16T15:56:36;100335.06;;;9.41;63.25
11605;BME280;5858;43.076;25.626;2023-02-16T15:59:16;100244.97;;;8.98;64.09
11605;BME280;5858;43.076;25.626;2023-02-16T16:02:20;100330.78;;;9.30;64.46
11605;BME280;5858;43.076;25.626;2023-02-16T16:05:20;100334.34;;;9.21;64.72
11605;BME280;5858;43.076;25.626;2023-02-16T16:07:48;100308.50;;;8.94;65.64
11605;BME280;5858;43.076;25.626;2023-02-16T16:10:19;100334.72;;;9.08;66.29
11605;BME280;5858;43.076;25.626;2023-02-16T16:13:11;100196.63;;;8.18;65.91
11605;BME280;5858;43.076;25.626;2023-02-16T16:15:49;100166.53;;;7.99;66.45
11605;BME280;5858;43.076;25.626;2023-02-16T16:18:51;100307.50;;;8.68;67.43
11605;BME280;5858;43.076;25.626;2023-02-16T16:21:24;100222.19;;;8.02;67.56
11605;BME280;5858;43.076;25.626;2023-02-16T16:23:57;100259.38;;;8.03;68.46
11605;BME280;5858;43.076;25.626;2023-02-16T16:26:26;100248.69;;;8.03;68.92
11605;BME280;5858;43.076;25.626;2023-02-16T16:28:55;100190.03;;;7.56;69.64
11605;BME280;5858;43.076;25.626;2023-02-16T16:31:37;100240.59;;;7.95;69.48
11605;BME280;5858;43.076;25.626;2023-02-16T16:34:09;100284.19;;;8.13;69.60
11605;BME280;5858;43.076;25.626;2023-02-16T16:36:42;100251.00;;;7.79;70.42
11605;BME280;5858;43.076;25.626;2023-02-16T16:39:30;100323.34;;;8.13;70.44
11605;BME280;5858;43.076;25.626;2023-02-16T16:42:09;100178.03;;;7.23;70.69
11605;BME280;5858;43.076;25.626;2023-02-16T16:48:43;100333.16;;;7.93;72.39
11605;BME280;5858;43.076;25.626;2023-02-16T16:51:20;100247.09;;;7.44;73.41
11605;BME280;5858;43.076;25.626;2023-02-16T16:54:29;100319.56;;;7.77;74.16
11605;BME280;5858;43.076;25.626;2023-02-16T16:57:23;100323.94;;;7.68;74.04
11605;BME280;5858;43.076;25.626;2023-02-16T16:59:57;100161.69;;;6.59;74.22
11605;BME280;5858;43.076;25.626;2023-02-16T17:02:25;100157.06;;;6.51;74.60
11605;BME280;5858;43.076;25.626;2023-02-16T17:04:57;100294.59;;;7.30;74.57
11605;BME280;5858;43.076;25.626;2023-02-16T17:07:25;100200.94;;;6.67;74.49
11605;BME280;5858;43.076;25.626;2023-02-16T17:09:52;100308.72;;;7.20;74.76
11605;BME280;5858;43.076;25.626;2023-02-16T17:12:20;100334.69;;;7.38;74.91
11605;BME280;5858;43.076;25.626;2023-02-16T17:14:49;100325.16;;;7.35;75.39
11605;BME280;5858;43.076;25.626;2023-02-16T17:17:17;100335.09;;;7.43;75.50
11605;BME280;5858;43.076;25.626;2023-02-16T17:19:44;100305.09;;;7.12;75.92
11605;BME280;5858;43.076;25.626;2023-02-16T17:22:14;100338.00;;;7.20;76.38
11605;BME280;5858;43.076;25.626;2023-02-16T17:24:42;100284.09;;;6.78;77.34
11605;BME280;5858;43.076;25.626;2023-02-16T17:27:10;100268.53;;;6.64;77.57
11605;BME280;5858;43.076;25.626;2023-02-16T17:29:38;100159.97;;;5.98;76.80
11605;BME280;5858;43.076;25.626;2023-02-16T17:32:10;100185.03;;;6.06;76.52
11605;BME280;5858;43.076;25.626;2023-02-16T17:34:40;100169.25;;;5.83;77.23
11605;BME280;5858;43.076;25.626;2023-02-16T17:37:09;100293.94;;;6.57;77.44
11605;BME280;5858;43.076;25.626;2023-02-16T17:39:40;100194.44;;;5.89;77.83
11605;BME280;5858;43.076;25.626;2023-02-16T17:42:09;100213.94;;;5.99;78.26
11605;BME280;5858;43.076;25.626;2023-02-16T17:44:37;100342.66;;;6.57;78.47
11605;BME280;5858;43.076;25.626;2023-02-16T17:47:04;100267.66;;;6.23;78.39
11605;BME280;5858;43.076;25.626;2023-02-16T17:49:32;100192.00;;;5.76;79.18
11605;BME280;5858;43.076;25.626;2023-02-16T17:51:59;100266.59;;;6.15;79.76
11605;BME280;5858;43.076;25.626;2023-02-16T17:54:26;100328.59;;;6.46;79.80
11605;BME280;5858;43.076;25.626;2023-02-16T17:56:55;100230.31;;;5.83;79.52
11605;BME280;5858;43.076;25.626;2023-02-16T17:59:23;100325.56;;;6.50;79.51
11605;BME280;5858;43.076;25.626;2023-02-16T18:01:50;100306.59;;;6.34;79.79
11605;BME280;5858;43.076;25.626;2023-02-16T18:04:17;100336.00;;;6.42;79.62
11605;BME280;5858;43.076;25.626;2023-02-16T18:06:44;100267.59;;;5.93;80.34
11605;BME280;5858;43.076;25.626;2023-02-16T18:09:14;100316.59;;;6.21;80.56
11605;BME280;5858;43.076;25.626;2023-02-16T18:11:45;100140.63;;;5.03;81.20
11605;BME280;5858;43.076;25.626;2023-02-16T18:14:13;100271.66;;;5.76;81.28
11605;BME280;5858;43.076;25.626;2023-02-16T18:16:41;100289.47;;;5.85;81.88
11605;BME280;5858;43.076;25.626;2023-02-16T18:19:09;100254.31;;;5.61;81.74
11605;BME280;5858;43.076;25.626;2023-02-16T18:21:40;100301.56;;;5.78;80.70
11605;BME280;5858;43.076;25.626;2023-02-16T18:24:10;100254.94;;;5.32;80.71
11605;BME280;5858;43.076;25.626;2023-02-16T18:26:41;100183.69;;;4.96;80.37
11605;BME280;5858;43.076;25.626;2023-02-16T18:29:09;100205.00;;;5.05;80.90
11605;BME280;5858;43.076;25.626;2023-02-16T18:31:38;100173.66;;;4.99;81.36
11605;BME280;5858;43.076;25.626;2023-02-16T18:34:14;100209.41;;;5.16;80.94
11605;BME280;5858;43.076;25.626;2023-02-16T18:37:22;100244.34;;;5.32;81.31
11605;BME280;5858;43.076;25.626;2023-02-16T18:39:50;100218.34;;;5.15;81.49
11605;BME280;5858;43.076;25.626;2023-02-16T18:42:17;100255.66;;;5.34;81.65
11605;BME280;5858;43.076;25.626;2023-02-16T18:44:44;100214.88;;;5.03;81.61
11605;BME280;5858;43.076;25.626;2023-02-16T18:47:13;100254.50;;;5.16;81.98
11605;BME280;5858;43.076;25.626;2023-02-16T18:49:40;100231.97;;;5.11;81.75
11605;BME280;5858;43.076;25.626;2023-02-16T18:52:07;100248.34;;;5.16;81.94
11605;BME280;5858;43.076;25.626;2023-02-16T18:54:36;100270.09;;;5.21;81.70
11605;BME280;5858;43.076;25.626;2023-02-16T18:57:03;100240.81;;;5.00;81.60
11605;BME280;5858;43.076;25.626;2023-02-16T18:59:33;100304.03;;;5.38;82.54
11605;BME280;5858;43.076;25.626;2023-02-16T19:02:00;100142.66;;;4.36;82.44
11605;BME280;5858;43.076;25.626;2023-02-16T19:04:28;100288.75;;;5.19;82.33
11605;BME280;5858;43.076;25.626;2023-02-16T19:07:04;100137.13;;;4.17;83.11
11605;BME280;5858;43.076;25.626;2023-02-16T19:09:48;100264.34;;;4.93;83.16
11605;BME280;5858;43.076;25.626;2023-02-16T19:12:15;100219.53;;;4.68;82.70
11605;BME280;5858;43.076;25.626;2023-02-16T19:14:43;100198.38;;;4.57;83.09
11605;BME280;5858;43.076;25.626;2023-02-16T19:17:10;100208.97;;;4.57;82.73
11605;BME280;5858;43.076;25.626;2023-02-16T19:19:40;100169.16;;;4.14;83.49
11605;BME280;5858;43.076;25.626;2023-02-16T19:22:08;100232.09;;;4.66;83.72
11605;BME280;5858;43.076;25.626;2023-02-16T19:24:36;100228.97;;;4.61;83.97
11605;BME280;5858;43.076;25.626;2023-02-16T19:27:06;100262.56;;;4.71;83.77
11605;BME280;5858;43.076;25.626;2023-02-16T19:29:34;100276.19;;;4.78;83.85
11605;BME280;5858;43.076;25.626;2023-02-16T19:32:01;100182.75;;;4.20;84.16
11605;BME280;5858;43.076;25.626;2023-02-16T19:34:28;100179.25;;;4.20;83.42
11605;BME280;5858;43.076;25.626;2023-02-16T19:36:55;100210.19;;;4.08;84.54
11605;BME280;5858;43.076;25.626;2023-02-16T19:39:22;100199.13;;;4.25;84.42
11605;BME280;5858;43.076;25.626;2023-02-16T19:41:49;100236.72;;;4.30;84.83
11605;BME280;5858;43.076;25.626;2023-02-16T19:44:18;100200.22;;;4.11;84.55